sensor_id;sensor_type;location;lat;lon;timestamp;pressure;altitude;pressure_sealevel;temperature;humidity
14269;BME280;7218;51.480;7.006;2023-05-14T00:02:20;100771.13;;;11.77;100.00
14269;BME280;7218;51.480;7.006;2023-05-14T00:04:47;100769.22;;;11.86;100.00
14269;BME280;7218;51.480;7.006;2023-05-14T00:07:14;100770.13;;;11.85;100.00
14269;BME280;7218;51.480;7.006;2023-05-14T00:09:41;100766.94;;;11.63;100.00
14269;BME280;7218;51.480;7.006;2023-05-14T00:12:07;100756.44;;;11.66;100.00
14269;BME280;7218;51.480;7.006;2023-05-14T00:14:34;100759.97;;;11.64;100.00
14269;BME280;7218;51.480;7.006;2023-05-14T00:17:00;100753.19;;;11.54;100.00
14269;BME280;7218;51.480;7.006;2023-05-14T00:19:27;100757.47;;;11.58;100.00
14269;BME280;7218;51.480;7.006;2023-05-14T00:21:53;100747.16;;;11.49;100.00
14269;BME280;7218;51.480;7.006;2023-05-14T00:24:21;100745.25;;;11.60;100.00
14269;BME280;7218;51.480;7.006;2023-05-14T00:26:47;100744.72;;;11.38;100.00
14269;BME280;7218;51.480;7.006;2023-05-14T00:29:14;100742.03;;;11.41;100.00
14269;BME280;7218;51.480;7.006;2023-05-14T00:31:40;100749.91;;;11.40;100.00
14269;BME280;7218;51.480;7.006;2023-05-14T00:34:07;100743.94;;;11.32;100.00
14269;BME280;7218;51.480;7.006;2023-05-14T00:36:33;100744.00;;;11.29;100.00
14269;BME280;7218;51.480;7.006;2023-05-14T00:38:59;100737.19;;;11.18;100.00
14269;BME280;7218;51.480;7.006;2023-05-14T00:41:27;100738.94;;;11.16;100.00
14269;BME280;7218;51.480;7.006;2023-05-14T00:43:54;100741.59;;;11.13;100.00
14269;BME280;7218;51.480;7.006;2023-05-14T00:46:20;100735.63;;;11.05;100.00
14269;BME280;7218;51.480;7.006;2023-05-14T00:48:47;100732.16;;;11.03;100.00
14269;BME280;7218;51.480;7.006;2023-05-14T00:51:14;100726.03;;;11.07;100.00
14269;BME280;7218;51.480;7.006;2023-05-14T00:53:41;100720.94;;;10.97;100.00
14269;BME280;7218;51.480;7.006;2023-05-14T00:56:09;100719.97;;;11.05;100.00
14269;BME280;7218;51.480;7.006;2023-05-14T00:58:37;100722.44;;;11.14;100.00
14269;BME280;7218;51.480;7.006;2023-05-14T01:01:03;100721.66;;;11.09;100.00
14269;BME280;7218;51.480;7.006;2023-05-14T01:03:30;100717.25;;;11.13;100.00
14269;BME280;7218;51.480;7.006;2023-05-14T01:06:06;100728.53;;;11.13;100.00
14269;BME280;7218;51.480;7.006;2023-05-14T01:08:40;100714.78;;;11.04;100.00
14269;BME280;7218;51.480;7.006;2023-05-14T01:11:16;100713.09;;;10.98;100.00
14269;BME280;7218;51.480;7.006;2023-05-14T01:13:50;100715.69;;;11.00;100.00
14269;BME280;7218;51.480;7.006;2023-05-14T01:16:22;100713.19;;;10.92;100.00
14269;BME280;7218;51.480;7.006;2023-05-14T01:18:52;100707.94;;;10.94;100.00
14269;BME280;7218;51.480;7.006;2023-05-14T01:21:35;100709.56;;;11.02;100.00
14269;BME280;7218;51.480;7.006;2023-05-14T01:24:03;100710.63;;;10.89;100.00
14269;BME280;7218;51.480;7.006;2023-05-14T01:26:30;100706.50;;;10.71;100.00
14269;BME280;7218;51.480;7.006;2023-05-14T01:29:00;100702.88;;;10.83;100.00
14269;BME280;7218;51.480;7.006;2023-05-14T01:31:30;100707.41;;;10.70;100.00
14269;BME280;7218;51.480;7.006;2023-05-14T01:33:59;100704.94;;;10.60;100.00
14269;BME280;7218;51.480;7.006;2023-05-14T01:36:28;100699.66;;;10.63;100.00
14269;BME280;7218;51.480;7.006;2023-05-14T01:38:57;100707.50;;;10.61;100.00
14269;BME280;7218;51.480;7.006;2023-05-14T01:41:24;100701.53;;;10.55;100.00
14269;BME280;7218;51.480;7.006;2023-05-14T01:43:51;100706.81;;;10.47;100.00
14269;BME280;7218;51.480;7.006;2023-05-14T01:46:18;100706.84;;;10.46;100.00
14269;BME280;7218;51.480;7.006;2023-05-14T01:48:44;100702.53;;;10.45;100.00
14269;BME280;7218;51.480;7.006;2023-05-14T01:51:11;100696.50;;;10.40;100.00
14269;BME280;7218;51.480;7.006;2023-05-14T01:53:38;100696.59;;;10.30;100.00
14269;BME280;7218;51.480;7.006;2023-05-14T01:56:06;100694.75;;;10.39;100.00
14269;BME280;7218;51.480;7.006;2023-05-14T01:58:33;100693.19;;;10.25;100.00
14269;BME280;7218;51.480;7.006;2023-05-14T02:01:00;100696.69;;;10.21;100.00
14269;BME280;7218;51.480;7.006;2023-05-14T02:03:26;100691.44;;;10.26;100.00
14269;BME280;7218;51.480;7.006;2023-05-14T02:05:53;100687.06;;;10.26;100.00
14269;BME280;7218;51.480;7.006;2023-05-14T02:08:19;100689.66;;;10.28;100.00
14269;BME280;7218;51.480;7.006;2023-05-14T02:10:46;100694.94;;;10.23;100.00
14269;BME280;7218;51.480;7.006;2023-05-14T02:13:13;100695.69;;;10.36;100.00
14269;BME280;7218;51.480;7.006;2023-05-14T02:15:40;100694.03;;;10.27;100.00
14269;BME280;7218;51.480;7.006;2023-05-14T02:18:06;100693.28;;;10.16;100.00
14269;BME280;7218;51.480;7.006;2023-05-14T02:20:33;100696.75;;;10.15;100.00
14269;BME280;7218;51.480;7.006;2023-05-14T02:22:59;100688.06;;;10.15;100.00
14269;BME280;7218;51.480;7.006;2023-05-14T02:25:26;100686.44;;;10.03;100.00
14269;BME280;7218;51.480;7.006;2023-05-14T02:27:52;100696.03;;;10.00;100.00
14269;BME280;7218;51.480;7.006;2023-05-14T02:30:20;100696.00;;;10.06;100.00
14269;BME280;7218;51.480;7.006;2023-05-14T02:32:46;100689.97;;;9.99;100.00
14269;BME280;7218;51.480;7.006;2023-05-14T02:35:13;100692.69;;;9.87;100.00
14269;BME280;7218;51.480;7.006;2023-05-14T02:37:39;100700.50;;;9.90;100.00
14269;BME280;7218;51.480;7.006;2023-05-14T02:40:07;100698.81;;;9.84;100.00
14269;BME280;7218;51.480;7.006;2023-05-14T02:42:33;100697.97;;;9.78;100.00
14269;BME280;7218;51.480;7.006;2023-05-14T02:45:00;100691.91;;;9.79;100.00
14269;BME280;7218;51.480;7.006;2023-05-14T02:47:27;100689.22;;;9.88;100.00
14269;BME280;7218;51.480;7.006;2023-05-14T02:49:54;100692.81;;;9.73;100.00
14269;BME280;7218;51.480;7.006;2023-05-14T02:52:20;100693.75;;;9.68;100.00
14269;BME280;7218;51.480;7.006;2023-05-14T02:54:47;100693.72;;;9.71;100.00
14269;BME280;7218;51.480;7.006;2023-05-14T02:57:13;100698.91;;;9.74;100.00
14269;BME280;7218;51.480;7.006;2023-05-14T02:59:40;100698.91;;;9.72;100.00
14269;BME280;7218;51.480;7.006;2023-05-14T03:02:06;100698.97;;;9.66;100.00
14269;BME280;7218;51.480;7.006;2023-05-14T03:04:34;100706.66;;;9.78;100.00
14269;BME280;7218;51.480;7.006;2023-05-14T03:07:00;100697.28;;;9.61;100.00
14269;BME280;7218;51.480;7.006;2023-05-14T03:09:27;100698.06;;;9.69;100.00
14269;BME280;7218;51.480;7.006;2023-05-14T03:11:53;100694.66;;;9.64;100.00
14269;BME280;7218;51.480;7.006;2023-05-14T03:14:20;100692.91;;;9.63;100.00
14269;BME280;7218;51.480;7.006;2023-05-14T03:16:46;100692.91;;;9.63;100.00
14269;BME280;7218;51.480;7.006;2023-05-14T03:19:13;100693.84;;;9.57;100.00
14269;BME280;7218;51.480;7.006;2023-05-14T03:21:41;100688.53;;;9.68;100.00
14269;BME280;7218;51.480;7.006;2023-05-14T03:24:07;100693.03;;;9.47;100.00
14269;BME280;7218;51.480;7.006;2023-05-14T03:26:34;100692.22;;;9.45;100.00
14269;BME280;7218;51.480;7.006;2023-05-14T03:29:01;100700.00;;;9.47;100.00
14269;BME280;7218;51.480;7.006;2023-05-14T03:31:28;100691.47;;;9.31;100.00
14269;BME280;7218;51.480;7.006;2023-05-14T03:33:55;100691.44;;;9.34;100.00
14269;BME280;7218;51.480;7.006;2023-05-14T03:36:22;100685.31;;;9.40;100.00
14269;BME280;7218;51.480;7.006;2023-05-14T03:38:49;100692.22;;;9.42;100.00
14269;BME280;7218;51.480;7.006;2023-05-14T03:41:16;100690.56;;;9.32;100.00
14269;BME280;7218;51.480;7.006;2023-05-14T03:43:44;100687.09;;;9.33;100.00
14269;BME280;7218;51.480;7.006;2023-05-14T03:46:10;100685.34;;;9.34;100.00
14269;BME280;7218;51.480;7.006;2023-05-14T03:48:37;100691.44;;;9.33;100.00
14269;BME280;7218;51.480;7.006;2023-05-14T03:51:03;100680.97;;;9.39;100.00
14269;BME280;7218;51.480;7.006;2023-05-14T03:53:29;100680.97;;;9.40;100.00
14269;BME280;7218;51.480;7.006;2023-05-14T03:55:57;100681.69;;;9.58;100.00
14269;BME280;7218;51.480;7.006;2023-05-14T03:58:24;100680.06;;;9.44;100.00
14269;BME280;7218;51.480;7.006;2023-05-14T04:00:50;100676.59;;;9.42;100.00
14269;BME280;7218;51.480;7.006;2023-05-14T04:03:17;100674.91;;;9.38;100.00
14269;BME280;7218;51.480;7.006;2023-05-14T04:05:43;100677.50;;;9.38;100.00
14269;BME280;7218;51.480;7.006;2023-05-14T04:08:10;100671.44;;;9.39;100.00
14269;BME280;7218;51.480;7.006;2023-05-14T04:10:36;100677.56;;;9.34;100.00
14269;BME280;7218;51.480;7.006;2023-05-14T04:13:04;100672.31;;;9.40;100.00
14269;BME280;7218;51.480;7.006;2023-05-14T04:15:30;100670.59;;;9.34;100.00
14269;BME280;7218;51.480;7.006;2023-05-14T04:17:57;100668.00;;;9.34;100.00
14269;BME280;7218;51.480;7.006;2023-05-14T04:20:23;100663.63;;;9.39;100.00
14269;BME280;7218;51.480;7.006;2023-05-14T04:22:50;100669.69;;;9.38;100.00
14269;BME280;7218;51.480;7.006;2023-05-14T04:25:16;100660.13;;;9.45;100.00
14269;BME280;7218;51.480;7.006;2023-05-14T04:27:43;100656.66;;;9.44;100.00
14269;BME280;7218;51.480;7.006;2023-05-14T04:30:11;100660.91;;;9.51;100.00
14269;BME280;7218;51.480;7.006;2023-05-14T04:32:38;100660.06;;;9.49;100.00
14269;BME280;7218;51.480;7.006;2023-05-14T04:35:05;100650.38;;;9.64;100.00
14269;BME280;7218;51.480;7.006;2023-05-14T04:37:33;100659.97;;;9.57;100.00
14269;BME280;7218;51.480;7.006;2023-05-14T04:39:59;100654.72;;;9.65;100.00
14269;BME280;7218;51.480;7.006;2023-05-14T04:42:26;100652.94;;;9.67;100.00
14269;BME280;7218;51.480;7.006;2023-05-14T04:44:52;100654.63;;;9.72;100.00
14269;BME280;7218;51.480;7.006;2023-05-14T04:47:20;100651.00;;;9.88;100.00
14269;BME280;7218;51.480;7.006;2023-05-14T04:49:46;100646.72;;;9.83;100.00
14269;BME280;7218;51.480;7.006;2023-05-14T04:52:13;100645.84;;;9.84;100.00
14269;BME280;7218;51.480;7.006;2023-05-14T04:54:39;100654.47;;;9.90;100.00
14269;BME280;7218;51.480;7.006;2023-05-14T04:57:06;100642.16;;;10.03;100.00
14269;BME280;7218;51.480;7.006;2023-05-14T04:59:32;100652.38;;;10.24;100.00
14269;BME280;7218;51.480;7.006;2023-05-14T05:01:59;100650.69;;;10.19;100.00
14269;BME280;7218;51.480;7.006;2023-05-14T05:04:26;100652.19;;;10.36;100.00
14269;BME280;7218;51.480;7.006;2023-05-14T05:06:53;100653.19;;;10.26;100.00
14269;BME280;7218;51.480;7.006;2023-05-14T05:09:19;100659.38;;;10.19;100.00
14269;BME280;7218;51.480;7.006;2023-05-14T05:11:46;100657.59;;;10.21;100.00
14269;BME280;7218;51.480;7.006;2023-05-14T05:14:12;100656.78;;;10.19;100.00
14269;BME280;7218;51.480;7.006;2023-05-14T05:16:39;100656.72;;;10.25;100.00
14269;BME280;7218;51.480;7.006;2023-05-14T05:19:06;100653.19;;;10.29;100.00
14269;BME280;7218;51.480;7.006;2023-05-14T05:21:34;100651.97;;;10.55;100.00
14269;BME280;7218;51.480;7.006;2023-05-14T05:24:00;100649.50;;;10.44;100.00
14269;BME280;7218;51.480;7.006;2023-05-14T05:26:27;100656.28;;;10.57;100.00
14269;BME280;7218;51.480;7.006;2023-05-14T05:28:53;100653.75;;;10.51;100.00
14269;BME280;7218;51.480;7.006;2023-05-14T05:31:20;100659.75;;;10.59;100.00
14269;BME280;7218;51.480;7.006;2023-05-14T05:33:46;100655.25;;;10.70;100.00
14269;BME280;7218;51.480;7.006;2023-05-14T05:36:13;100664.81;;;10.70;100.00
14269;BME280;7218;51.480;7.006;2023-05-14T05:38:40;100665.50;;;10.83;100.00
14269;BME280;7218;51.480;7.006;2023-05-14T05:41:07;100659.47;;;10.77;100.00
14269;BME280;7218;51.480;7.006;2023-05-14T05:43:33;100658.53;;;10.85;100.00
14269;BME280;7218;51.480;7.006;2023-05-14T05:46:00;100666.22;;;10.94;100.00
14269;BME280;7218;51.480;7.006;2023-05-14T05:48:26;100665.97;;;11.09;100.00
14269;BME280;7218;51.480;7.006;2023-05-14T05:50:53;100661.56;;;11.14;100.00
14269;BME280;7218;51.480;7.006;2023-05-14T05:53:19;100661.41;;;11.21;100.00
14269;BME280;7218;51.480;7.006;2023-05-14T05:55:47;100655.84;;;11.44;100.00
14269;BME280;7218;51.480;7.006;2023-05-14T05:58:15;100663.59;;;11.47;100.00
14269;BME280;7218;51.480;7.006;2023-05-14T06:00:42;100663.50;;;11.55;100.00
14269;BME280;7218;51.480;7.006;2023-05-14T06:03:09;100663.38;;;11.61;100.00
14269;BME280;7218;51.480;7.006;2023-05-14T06:05:36;100656.22;;;11.72;100.00
14269;BME280;7218;51.480;7.006;2023-05-14T06:08:03;100663.88;;;11.84;100.00
14269;BME280;7218;51.480;7.006;2023-05-14T06:10:29;100662.97;;;11.85;100.00
14269;BME280;7218;51.480;7.006;2023-05-14T06:12:58;100665.16;;;12.06;100.00
14269;BME280;7218;51.480;7.006;2023-05-14T06:15:24;100659.06;;;12.07;100.00
14269;BME280;7218;51.480;7.006;2023-05-14T06:17:50;100667.75;;;12.08;100.00
14269;BME280;7218;51.480;7.006;2023-05-14T06:20:18;100672.00;;;12.14;100.00
14269;BME280;7218;51.480;7.006;2023-05-14T06:22:44;100673.78;;;12.12;100.00
14269;BME280;7218;51.480;7.006;2023-05-14T06:25:10;100674.47;;;12.21;100.00
14269;BME280;7218;51.480;7.006;2023-05-14T06:27:37;100674.44;;;12.24;100.00
14269;BME280;7218;51.480;7.006;2023-05-14T06:30:06;100673.03;;;12.49;100.00
14269;BME280;7218;51.480;7.006;2023-05-14T06:32:32;100670.50;;;12.45;100.00
14269;BME280;7218;51.480;7.006;2023-05-14T06:34:59;100671.09;;;12.58;100.00
14269;BME280;7218;51.480;7.006;2023-05-14T06:37:25;100680.72;;;12.57;100.00
14269;BME280;7218;51.480;7.006;2023-05-14T06:39:52;100670.56;;;12.42;100.00
14269;BME280;7218;51.480;7.006;2023-05-14T06:42:18;100672.09;;;12.52;100.00
14269;BME280;7218;51.480;7.006;2023-05-14T06:44:45;100671.88;;;12.61;100.00
14269;BME280;7218;51.480;7.006;2023-05-14T06:47:13;100672.94;;;12.92;100.00
14269;BME280;7218;51.480;7.006;2023-05-14T06:49:39;100672.72;;;13.02;100.00
14269;BME280;7218;51.480;7.006;2023-05-14T06:52:06;100665.78;;;13.01;100.00
14269;BME280;7218;51.480;7.006;2023-05-14T06:54:32;100665.41;;;13.19;100.00
14269;BME280;7218;51.480;7.006;2023-05-14T06:56:59;100663.53;;;13.24;100.00
14269;BME280;7218;51.480;7.006;2023-05-14T06:59:25;100666.41;;;13.12;100.00
14269;BME280;7218;51.480;7.006;2023-05-14T07:01:52;100669.63;;;13.24;100.00
14269;BME280;7218;51.480;7.006;2023-05-14T07:04:20;100658.66;;;13.44;99.44
14269;BME280;7218;51.480;7.006;2023-05-14T07:06:46;100659.28;;;13.54;98.51
14269;BME280;7218;51.480;7.006;2023-05-14T07:09:13;100656.19;;;13.72;97.22
14269;BME280;7218;51.480;7.006;2023-05-14T07:11:39;100658.63;;;13.79;97.32
14269;BME280;7218;51.480;7.006;2023-05-14T07:14:05;100656.38;;;13.97;96.74
14269;BME280;7218;51.480;7.006;2023-05-14T07:16:32;100655.19;;;14.08;96.26
14269;BME280;7218;51.480;7.006;2023-05-14T07:18:58;100658.28;;;14.22;94.49
14269;BME280;7218;51.480;7.006;2023-05-14T07:21:26;100655.22;;;14.39;94.28
14269;BME280;7218;51.480;7.006;2023-05-14T07:23:53;100650.66;;;14.46;92.23
14269;BME280;7218;51.480;7.006;2023-05-14T07:26:19;100658.09;;;14.59;91.01
14269;BME280;7218;51.480;7.006;2023-05-14T07:28:48;100642.97;;;14.69;89.39
14269;BME280;7218;51.480;7.006;2023-05-14T07:31:14;100649.66;;;14.79;89.09
14269;BME280;7218;51.480;7.006;2023-05-14T07:33:41;100650.50;;;14.80;87.47
14269;BME280;7218;51.480;7.006;2023-05-14T07:36:07;100648.50;;;14.88;86.77
14269;BME280;7218;51.480;7.006;2023-05-14T07:38:35;100642.66;;;15.06;85.70
14269;BME280;7218;51.480;7.006;2023-05-14T07:41:02;100639.47;;;14.96;84.72
14269;BME280;7218;51.480;7.006;2023-05-14T07:43:29;100642.88;;;15.26;84.32
14269;BME280;7218;51.480;7.006;2023-05-14T07:45:55;100638.13;;;15.37;83.87
14269;BME280;7218;51.480;7.006;2023-05-14T07:48:22;100643.94;;;15.47;84.23
14269;BME280;7218;51.480;7.006;2023-05-14T07:50:48;100638.69;;;15.47;83.71
14269;BME280;7218;51.480;7.006;2023-05-14T07:53:16;100638.56;;;15.50;82.86
14269;BME280;7218;51.480;7.006;2023-05-14T07:55:44;100639.00;;;15.64;81.29
14269;BME280;7218;51.480;7.006;2023-05-14T07:58:12;100639.44;;;15.77;80.16
14269;BME280;7218;51.480;7.006;2023-05-14T08:00:38;100631.97;;;15.89;80.57
14269;BME280;7218;51.480;7.006;2023-05-14T08:03:05;100640.13;;;16.07;79.99
14269;BME280;7218;51.480;7.006;2023-05-14T08:05:31;100636.19;;;16.18;79.06
14269;BME280;7218;51.480;7.006;2023-05-14T08:07:58;100633.31;;;16.24;79.24
14269;BME280;7218;51.480;7.006;2023-05-14T08:10:24;100637.44;;;16.31;78.73
14269;BME280;7218;51.480;7.006;2023-05-14T08:12:52;100632.44;;;16.49;77.34
14269;BME280;7218;51.480;7.006;2023-05-14T08:15:19;100635.22;;;16.44;75.57
14269;BME280;7218;51.480;7.006;2023-05-14T08:17:45;100632.16;;;16.55;73.35
14269;BME280;7218;51.480;7.006;2023-05-14T08:20:12;100628.94;;;16.48;73.20
14269;BME280;7218;51.480;7.006;2023-05-14T08:22:38;100629.13;;;16.67;72.86
14269;BME280;7218;51.480;7.006;2023-05-14T08:25:05;100626.59;;;16.86;72.45
14269;BME280;7218;51.480;7.006;2023-05-14T08:27:32;100639.50;;;16.93;70.86
14269;BME280;7218;51.480;7.006;2023-05-14T08:30:00;100632.84;;;17.05;69.50
14269;BME280;7218;51.480;7.006;2023-05-14T08:32:26;100634.53;;;17.07;66.51
14269;BME280;7218;51.480;7.006;2023-05-14T08:34:52;100633.78;;;17.26;66.51
14269;BME280;7218;51.480;7.006;2023-05-14T08:37:19;100632.06;;;17.45;65.51
14269;BME280;7218;51.480;7.006;2023-05-14T08:39:45;100627.72;;;17.66;66.18
14269;BME280;7218;51.480;7.006;2023-05-14T08:42:12;100625.28;;;17.81;61.95
14269;BME280;7218;51.480;7.006;2023-05-14T08:44:47;100624.78;;;18.12;61.08
14269;BME280;7218;51.480;7.006;2023-05-14T08:47:17;100617.38;;;17.81;61.71
14269;BME280;7218;51.480;7.006;2023-05-14T08:49:46;100622.84;;;17.77;60.69
14269;BME280;7218;51.480;7.006;2023-05-14T08:52:15;100619.63;;;18.09;56.99
14269;BME280;7218;51.480;7.006;2023-05-14T08:54:44;100606.09;;;18.35;59.27
14269;BME280;7218;51.480;7.006;2023-05-14T08:57:11;100605.84;;;18.60;58.61
14269;BME280;7218;51.480;7.006;2023-05-14T08:59:39;100614.84;;;18.75;58.24
14269;BME280;7218;51.480;7.006;2023-05-14T09:02:08;100601.28;;;19.00;55.09
14269;BME280;7218;51.480;7.006;2023-05-14T09:04:36;100605.84;;;19.15;54.55
14269;BME280;7218;51.480;7.006;2023-05-14T09:07:03;100604.75;;;19.19;55.17
14269;BME280;7218;51.480;7.006;2023-05-14T09:09:31;100598.91;;;19.29;54.00
14269;BME280;7218;51.480;7.006;2023-05-14T09:11:59;100607.84;;;19.46;50.06
14269;BME280;7218;51.480;7.006;2023-05-14T09:14:26;100599.66;;;19.50;50.48
14269;BME280;7218;51.480;7.006;2023-05-14T09:16:53;100606.25;;;19.76;50.50
14269;BME280;7218;51.480;7.006;2023-05-14T09:19:21;100599.94;;;19.78;49.02
14269;BME280;7218;51.480;7.006;2023-05-14T09:21:49;100596.66;;;19.91;50.14
14269;BME280;7218;51.480;7.006;2023-05-14T09:24:19;100602.19;;;20.19;47.93
14269;BME280;7218;51.480;7.006;2023-05-14T09:26:49;100606.97;;;20.45;48.14
14269;BME280;7218;51.480;7.006;2023-05-14T09:29:16;100589.19;;;20.47;46.15
14269;BME280;7218;51.480;7.006;2023-05-14T09:31:42;100587.72;;;20.57;47.09
14269;BME280;7218;51.480;7.006;2023-05-14T09:34:08;100599.09;;;20.91;47.52
14269;BME280;7218;51.480;7.006;2023-05-14T09:36:35;100595.25;;;20.96;46.13
14269;BME280;7218;51.480;7.006;2023-05-14T09:39:03;100586.97;;;21.32;43.49
14269;BME280;7218;51.480;7.006;2023-05-14T09:41:30;100591.47;;;21.00;43.07
14269;BME280;7218;51.480;7.006;2023-05-14T09:43:56;100588.94;;;21.59;39.78
14269;BME280;7218;51.480;7.006;2023-05-14T09:46:23;100585.16;;;21.77;39.53
14269;BME280;7218;51.480;7.006;2023-05-14T09:48:54;100585.69;;;22.12;41.51
14269;BME280;7218;51.480;7.006;2023-05-14T09:51:21;100585.81;;;22.10;40.28
14269;BME280;7218;51.480;7.006;2023-05-14T09:53:49;100584.91;;;22.38;39.83
14269;BME280;7218;51.480;7.006;2023-05-14T09:56:18;100581.16;;;22.69;38.44
14269;BME280;7218;51.480;7.006;2023-05-14T09:58:45;100581.69;;;22.88;39.73
14269;BME280;7218;51.480;7.006;2023-05-14T10:01:12;100582.31;;;23.06;38.20
14269;BME280;7218;51.480;7.006;2023-05-14T10:03:40;100585.41;;;23.12;37.10
14269;BME280;7218;51.480;7.006;2023-05-14T10:06:07;100577.44;;;22.86;37.78
14269;BME280;7218;51.480;7.006;2023-05-14T10:08:35;100573.25;;;22.96;36.85
14269;BME280;7218;51.480;7.006;2023-05-14T10:11:07;100565.22;;;23.23;37.14
14269;BME280;7218;51.480;7.006;2023-05-14T10:13:40;100578.94;;;23.81;36.72
14269;BME280;7218;51.480;7.006;2023-05-14T10:16:10;100574.56;;;23.68;36.04
14269;BME280;7218;51.480;7.006;2023-05-14T10:18:42;100568.53;;;23.91;34.59
14269;BME280;7218;51.480;7.006;2023-05-14T10:21:13;100573.72;;;24.18;33.37
14269;BME280;7218;51.480;7.006;2023-05-14T10:23:40;100574.88;;;24.39;33.28
14269;BME280;7218;51.480;7.006;2023-05-14T10:26:08;100565.75;;;24.54;33.43
14269;BME280;7218;51.480;7.006;2023-05-14T10:28:35;100563.22;;;24.76;33.68
14269;BME280;7218;51.480;7.006;2023-05-14T10:31:03;100558.47;;;24.93;33.40
14269;BME280;7218;51.480;7.006;2023-05-14T10:33:45;100546.66;;;25.08;31.60
14269;BME280;7218;51.480;7.006;2023-05-14T10:36:12;100556.31;;;24.98;31.95
14269;BME280;7218;51.480;7.006;2023-05-14T10:38:38;100555.88;;;25.04;31.18
14269;BME280;7218;51.480;7.006;2023-05-14T10:41:09;100556.47;;;25.42;32.47
14269;BME280;7218;51.480;7.006;2023-05-14T10:43:38;100552.84;;;25.43;32.75
14269;BME280;7218;51.480;7.006;2023-05-14T10:48:39;100539.78;;;25.16;30.49
14269;BME280;7218;51.480;7.006;2023-05-14T10:51:07;100545.81;;;25.42;32.67
14269;BME280;7218;51.480;7.006;2023-05-14T10:53:35;100544.91;;;25.65;31.32
14269;BME280;7218;51.480;7.006;2023-05-14T10:56:03;100537.13;;;25.62;31.75
14269;BME280;7218;51.480;7.006;2023-05-14T10:58:31;100532.59;;;25.52;31.74
14269;BME280;7218;51.480;7.006;2023-05-14T11:00:59;100528.47;;;25.48;32.17
14269;BME280;7218;51.480;7.006;2023-05-14T11:03:28;100524.03;;;25.70;31.39
14269;BME280;7218;51.480;7.006;2023-05-14T11:05:56;100527.78;;;25.68;31.97
14269;BME280;7218;51.480;7.006;2023-05-14T11:08:25;100533.63;;;26.18;32.52
14269;BME280;7218;51.480;7.006;2023-05-14T11:10:53;100529.66;;;26.34;30.96
14269;BME280;7218;51.480;7.006;2023-05-14T11:13:20;100528.06;;;25.41;30.39
14269;BME280;7218;51.480;7.006;2023-05-14T11:15:46;100533.16;;;24.74;31.24
14269;BME280;7218;51.480;7.006;2023-05-14T11:18:25;100522.66;;;24.60;30.59
14269;BME280;7218;51.480;7.006;2023-05-14T11:20:51;100519.06;;;25.31;31.94
14269;BME280;7218;51.480;7.006;2023-05-14T11:23:22;100520.88;;;26.43;31.79
14269;BME280;7218;51.480;7.006;2023-05-14T11:25:50;100510.88;;;27.00;28.47
14269;BME280;7218;51.480;7.006;2023-05-14T11:28:18;100515.13;;;27.64;28.05
14269;BME280;7218;51.480;7.006;2023-05-14T11:30:45;100515.06;;;27.55;27.13
14269;BME280;7218;51.480;7.006;2023-05-14T11:33:12;100510.38;;;28.08;28.60
14269;BME280;7218;51.480;7.006;2023-05-14T11:35:39;100506.75;;;28.68;28.39
14269;BME280;7218;51.480;7.006;2023-05-14T11:38:12;100506.63;;;29.18;25.18
14269;BME280;7218;51.480;7.006;2023-05-14T11:40:40;100509.88;;;28.83;25.97
14269;BME280;7218;51.480;7.006;2023-05-14T11:43:07;100499.97;;;29.31;26.17
14269;BME280;7218;51.480;7.006;2023-05-14T11:45:33;100492.03;;;29.39;26.25
14269;BME280;7218;51.480;7.006;2023-05-14T11:48:01;100498.84;;;27.56;27.22
14269;BME280;7218;51.480;7.006;2023-05-14T11:50:27;100500.31;;;26.55;28.74
14269;BME280;7218;51.480;7.006;2023-05-14T11:52:55;100494.88;;;26.34;30.78
14269;BME280;7218;51.480;7.006;2023-05-14T11:55:22;100490.88;;;25.73;30.44
14269;BME280;7218;51.480;7.006;2023-05-14T11:57:50;100494.00;;;25.56;29.47
14269;BME280;7218;51.480;7.006;2023-05-14T12:00:18;100492.41;;;25.42;26.90
14269;BME280;7218;51.480;7.006;2023-05-14T12:02:46;100482.94;;;26.49;28.13
14269;BME280;7218;51.480;7.006;2023-05-14T12:05:13;100491.97;;;26.15;28.56
14269;BME280;7218;51.480;7.006;2023-05-14T12:07:43;100487.59;;;25.58;28.71
14269;BME280;7218;51.480;7.006;2023-05-14T12:10:11;100486.78;;;25.23;29.54
14269;BME280;7218;51.480;7.006;2023-05-14T12:12:37;100484.84;;;24.42;28.50
14269;BME280;7218;51.480;7.006;2023-05-14T12:15:11;100473.53;;;24.86;28.70
14269;BME280;7218;51.480;7.006;2023-05-14T12:17:38;100471.06;;;26.09;26.97
14269;BME280;7218;51.480;7.006;2023-05-14T12:20:07;100471.28;;;27.03;24.84
14269;BME280;7218;51.480;7.006;2023-05-14T12:22:36;100464.13;;;28.15;25.15
14269;BME280;7218;51.480;7.006;2023-05-14T12:25:08;100463.75;;;29.26;25.20
14269;BME280;7218;51.480;7.006;2023-05-14T12:27:36;100463.09;;;30.07;24.91
14269;BME280;7218;51.480;7.006;2023-05-14T12:30:05;100468.81;;;30.40;24.19
14269;BME280;7218;51.480;7.006;2023-05-14T12:32:33;100470.13;;;30.63;24.65
14269;BME280;7218;51.480;7.006;2023-05-14T12:35:00;100466.97;;;29.58;26.18
14269;BME280;7218;51.480;7.006;2023-05-14T12:37:26;100470.28;;;28.06;26.01
14269;BME280;7218;51.480;7.006;2023-05-14T12:39:53;100464.97;;;27.04;26.92
14269;BME280;7218;51.480;7.006;2023-05-14T12:42:19;100459.13;;;26.35;27.58
14269;BME280;7218;51.480;7.006;2023-05-14T12:44:46;100458.13;;;27.41;27.27
14269;BME280;7218;51.480;7.006;2023-05-14T12:47:12;100452.50;;;28.93;26.62
14269;BME280;7218;51.480;7.006;2023-05-14T12:49:40;100443.44;;;29.60;25.51
14269;BME280;7218;51.480;7.006;2023-05-14T12:52:07;100438.69;;;30.54;23.91
14269;BME280;7218;51.480;7.006;2023-05-14T12:54:33;100436.84;;;30.90;22.74
14269;BME280;7218;51.480;7.006;2023-05-14T12:57:00;100434.16;;;31.07;23.35
14269;BME280;7218;51.480;7.006;2023-05-14T12:59:26;100442.44;;;31.57;23.46
14269;BME280;7218;51.480;7.006;2023-05-14T13:01:53;100436.41;;;32.14;22.86